Time;durP1;ratioP1;P1;durP2;ratioP2;P2;SDS_P1;SDS_P2;PMS_P1;PMS_P2;Temp;Humidity;BMP_temperature;BMP_pressure;BME280_temperature;BME280_humidity;BME280_pressure;Samples;Min_cycle;Max_cycle;Signal;HPM_P1;HPM_P2
2022/08/24 00:01:57;;;;;;;;;;;;;;;;;;5062562;28;19912;-78
2022/08/24 00:04:22;;;;;;;;;;;;;;;;;;5079039;28;19920;-77
2022/08/24 00:06:48;;;;;;;;;;;;;;;;;;5062352;28;19912;-77
2022/08/24 00:09:14;;;;;;;;;;;;;;;;;;5078753;28;20320;-78
2022/08/24 00:11:39;;;;;;;;;;;;;;;;;;5062049;28;19916;-78
2022/08/24 00:14:04;;;;;;;;;;;;;;;;;;5078725;28;19945;-78
2022/08/24 00:16:30;;;;;;;;;;;;;;;;;;5062014;28;20282;-78
2022/08/24 00:18:55;;;;;;;;;;;;;;;;;;5078735;28;19930;-78
2022/08/24 00:21:20;;;;;;;;;;;;;;;;;;5061909;28;19916;-78
2022/08/24 00:23:48;;;;;;;;;;;;;;;;;;5064906;28;19951;-78
2022/08/24 00:26:14;;;;;;;;;;;;;;;;;;5079560;28;19951;-76
2022/08/24 00:28:39;;;;;;;;;;;;;;;;;;5062475;28;19959;-78
2022/08/24 00:31:05;;;;;;;;;;;;;;;;;;5078758;28;19920;-77
2022/08/24 00:33:31;;;;;;;;;;;;;;;;;;5061913;28;20475;-78
2022/08/24 00:35:56;;;;;;;;;;;;;;;;;;5078623;28;19913;-78
2022/08/24 00:38:21;;;;;;;;;;;;;;;;;;5061720;28;19912;-78
2022/08/24 00:40:47;;;;;;;;;;;;;;;;;;5061575;28;20419;-78
2022/08/24 00:43:13;;;;;;;;;;;;;;;;;;5078211;28;20014;-78
2022/08/24 00:45:42;;;;;;;;;;;;;;;;;;5078510;28;19916;-78
2022/08/24 00:48:11;;;;;;;;;;;;;;;;;;5061388;28;19916;-78
2022/08/24 00:50:47;;;;;;;;;;;;;;;;;;5047039;28;20395;-78
2022/08/24 00:53:15;;;;;;;;;;;;;;;;;;5058337;28;19919;-78
2022/08/24 00:55:41;;;;;;;;;;;;;;;;;;5058415;28;19912;-78
2022/08/24 00:58:14;;;;;;;;;;;;;;;;;;5058267;28;19913;-78
2022/08/24 01:00:41;;;;;;;;;;;;;;;;;;5058040;28;19956;-78
2022/08/24 01:03:06;;;;;;;;;;;;;;;;;;5041303;28;19912;-78
2022/08/24 01:05:32;;;;;;;;;;;;;;;;;;5041009;28;19918;-78
2022/08/24 01:07:58;;;;;;;;;;;;;;;;;;5041178;28;20023;-78
2022/08/24 01:10:24;;;;;;;;;;;;;;;;;;5056552;28;20422;-78
2022/08/24 01:12:50;;;;;;;;;;;;;;;;;;5075675;28;20028;-78
2022/08/24 01:15:15;;;;;;;;;;;;;;;;;;5041342;28;19924;-78
2022/08/24 01:20:25;;;;;;;;;;;;;;;;;;5060521;28;19924;-78
2022/08/24 01:22:52;;;;;;;;;;;;;;;;;;5057719;28;19912;-78
2022/08/24 01:25:17;;;;;;;;;;;;;;;;;;5075334;28;19920;-78
2022/08/24 01:27:43;;;;;;;;;;;;;;;;;;5040732;28;19912;-78
2022/08/24 01:30:09;;;;;;;;;;;;;;;;;;5057797;28;19921;-77
2022/08/24 01:32:35;;;;;;;;;;;;;;;;;;5040621;28;20382;-78
2022/08/24 01:35:00;;;;;;;;;;;;;;;;;;5040744;28;19916;-78
2022/08/24 01:37:25;;;;;;;;;;;;;;;;;;5075436;28;19975;-78
2022/08/24 01:39:52;;;;;;;;;;;;;;;;;;5057648;28;19916;-78
2022/08/24 01:42:17;;;;;;;;;;;;;;;;;;5040653;28;19991;-78
2022/08/24 01:44:43;;;;;;;;;;;;;;;;;;5057158;28;20300;-78
2022/08/24 01:47:09;;;;;;;;;;;;;;;;;;5057020;28;19916;-78
2022/08/24 01:49:35;;;;;;;;;;;;;;;;;;5074813;28;20015;-78
2022/08/24 01:52:01;;;;;;;;;;;;;;;;;;5074806;28;19952;-78
2022/08/24 01:54:26;;;;;;;;;;;;;;;;;;5040100;28;19916;-78
2022/08/24 01:56:51;;;;;;;;;;;;;;;;;;5056734;28;19920;-79
2022/08/24 01:59:18;;;;;;;;;;;;;;;;;;5074875;28;19951;-78
2022/08/24 02:01:45;;;;;;;;;;;;;;;;;;5056805;28;19913;-78
2022/08/24 02:04:11;;;;;;;;;;;;;;;;;;5057009;28;19920;-78
2022/08/24 02:06:36;;;;;;;;;;;;;;;;;;5040067;28;19961;-78
2022/08/24 02:09:02;;;;;;;;;;;;;;;;;;5039993;28;20006;-78
2022/08/24 02:11:28;;;;;;;;;;;;;;;;;;5056637;28;20276;-78
2022/08/24 02:13:53;;;;;;;;;;;;;;;;;;5039911;28;19916;-78
2022/08/24 02:16:18;;;;;;;;;;;;;;;;;;5056734;28;19923;-78
2022/08/24 02:18:44;;;;;;;;;;;;;;;;;;5056968;28;20289;-78
2022/08/24 02:21:09;;;;;;;;;;;;;;;;;;5056856;28;19995;-78
2022/08/24 02:23:35;;;;;;;;;;;;;;;;;;5039611;28;19919;-78
2022/08/24 02:26:01;;;;;;;;;;;;;;;;;;5040157;28;19913;-78
2022/08/24 02:28:27;;;;;;;;;;;;;;;;;;5056604;28;20287;-78
2022/08/24 02:30:52;;;;;;;;;;;;;;;;;;5056484;28;19920;-78
2022/08/24 02:33:18;;;;;;;;;;;;;;;;;;5039461;28;20336;-78
2022/08/24 02:35:43;;;;;;;;;;;;;;;;;;5056395;28;19912;-78
2022/08/24 02:38:09;;;;;;;;;;;;;;;;;;5056445;28;19912;-78
2022/08/24 02:40:34;;;;;;;;;;;;;;;;;;5055988;28;20122;-78
2022/08/24 02:42:59;;;;;;;;;;;;;;;;;;5056044;28;19958;-78
2022/08/24 02:45:25;;;;;;;;;;;;;;;;;;5039442;28;19916;-78
2022/08/24 02:47:50;;;;;;;;;;;;;;;;;;5039267;28;20023;-78
2022/08/24 02:50:16;;;;;;;;;;;;;;;;;;5064663;28;19931;-78
2022/08/24 02:52:41;;;;;;;;;;;;;;;;;;5059050;28;20003;-78
2022/08/24 02:55:08;;;;;;;;;;;;;;;;;;5075892;28;20020;-79
2022/08/24 02:57:33;;;;;;;;;;;;;;;;;;5076002;28;19912;-79
2022/08/24 02:59:58;;;;;;;;;;;;;;;;;;5076175;28;20270;-77
2022/08/24 03:02:24;;;;;;;;;;;;;;;;;;5094007;28;20007;-79
2022/08/24 03:04:49;;;;;;;;;;;;;;;;;;5094176;28;19969;-78
2022/08/24 03:07:14;;;;;;;;;;;;;;;;;;5093780;28;20398;-79
2022/08/24 03:09:40;;;;;;;;;;;;;;;;;;5076014;28;19930;-78
2022/08/24 03:12:05;;;;;;;;;;;;;;;;;;5058749;28;20439;-78
2022/08/24 03:14:30;;;;;;;;;;;;;;;;;;5094113;28;19931;-78
2022/08/24 03:16:55;;;;;;;;;;;;;;;;;;5093662;28;19917;-79
2022/08/24 03:19:21;;;;;;;;;;;;;;;;;;5075625;28;19963;-79
2022/08/24 03:21:46;;;;;;;;;;;;;;;;;;5093923;28;19916;-78
2022/08/24 03:24:12;;;;;;;;;;;;;;;;;;5075377;28;19916;-78
2022/08/24 03:26:37;;;;;;;;;;;;;;;;;;5075648;28;19999;-78
2022/08/24 03:29:03;;;;;;;;;;;;;;;;;;5075965;28;20381;-78
2022/08/24 03:31:28;;;;;;;;;;;;;;;;;;5058650;28;19969;-78
2022/08/24 03:33:53;;;;;;;;;;;;;;;;;;5078575;28;19973;-80
2022/08/24 03:36:19;;;;;;;;;;;;;;;;;;5079708;28;19938;-79
2022/08/24 03:38:44;;;;;;;;;;;;;;;;;;5098192;28;19989;-79
2022/08/24 03:41:09;;;;;;;;;;;;;;;;;;5080041;28;19923;-78
2022/08/24 03:43:45;;;;;;;;;;;;;;;;;;5079424;28;19920;-78
2022/08/24 03:46:11;;;;;;;;;;;;;;;;;;5063889;28;19918;-78
2022/08/24 03:48:38;;;;;;;;;;;;;;;;;;5062520;28;19912;-78
2022/08/24 03:51:04;;;;;;;;;;;;;;;;;;5078957;28;19924;-79
2022/08/24 03:53:29;;;;;;;;;;;;;;;;;;5097330;28;19923;-79
2022/08/24 03:55:54;;;;;;;;;;;;;;;;;;5079233;28;19917;-79
2022/08/24 03:58:20;;;;;;;;;;;;;;;;;;5079114;28;19912;-78
2022/08/24 04:00:45;;;;;;;;;;;;;;;;;;5079157;28;19916;-79
2022/08/24 04:03:12;;;;;;;;;;;;;;;;;;5097826;28;19924;-79
2022/08/24 04:05:38;;;;;;;;;;;;;;;;;;5079033;28;20006;-79
2022/08/24 04:08:04;;;;;;;;;;;;;;;;;;5062298;28;19989;-79
2022/08/24 04:10:29;;;;;;;;;;;;;;;;;;5062149;28;20285;-79
2022/08/24 04:12:55;;;;;;;;;;;;;;;;;;5062160;28;19912;-79
2022/08/24 04:15:23;;;;;;;;;;;;;;;;;;5079162;28;19931;-77
2022/08/24 04:17:48;;;;;;;;;;;;;;;;;;5062504;28;20003;-80
2022/08/24 04:20:13;;;;;;;;;;;;;;;;;;5062614;28;20362;-79
2022/08/24 04:22:39;;;;;;;;;;;;;;;;;;5078648;28;19916;-79
2022/08/24 04:25:04;;;;;;;;;;;;;;;;;;5061862;28;19917;-79
2022/08/24 04:27:30;;;;;;;;;;;;;;;;;;5062553;28;19919;-79
2022/08/24 04:29:55;;;;;;;;;;;;;;;;;;5061821;28;19981;-79
2022/08/24 04:32:20;;;;;;;;;;;;;;;;;;5095450;28;19985;-79
2022/08/24 04:34:45;;;;;;;;;;;;;;;;;;5078063;28;19969;-78
2022/08/24 04:37:12;;;;;;;;;;;;;;;;;;5096133;28;19920;-78
2022/08/24 04:39:37;;;;;;;;;;;;;;;;;;5077971;28;19912;-79
2022/08/24 04:42:03;;;;;;;;;;;;;;;;;;5061147;28;19923;-78
2022/08/24 04:44:30;;;;;;;;;;;;;;;;;;5059958;28;19924;-79
2022/08/24 04:46:55;;;;;;;;;;;;;;;;;;5061146;28;19935;-79
2022/08/24 04:49:20;;;;;;;;;;;;;;;;;;5057127;28;19932;-79
2022/08/24 04:51:46;;;;;;;;;;;;;;;;;;5057833;28;19923;-80
2022/08/24 04:54:11;;;;;;;;;;;;;;;;;;5075635;28;19927;-78
2022/08/24 04:56:36;;;;;;;;;;;;;;;;;;5041050;28;19917;-78
2022/08/24 04:59:04;;;;;;;;;;;;;;;;;;5075307;28;20282;-78
2022/08/24 05:01:31;;;;;;;;;;;;;;;;;;5058942;28;19919;-78
2022/08/24 05:03:56;;;;;;;;;;;;;;;;;;5042650;28;19913;-77
2022/08/24 05:06:22;;;;;;;;;;;;;;;;;;5076789;28;20359;-78
2022/08/24 05:08:48;;;;;;;;;;;;;;;;;;5058509;28;19912;-77
2022/08/24 05:11:14;;;;;;;;;;;;;;;;;;5058863;28;19920;-78
2022/08/24 05:13:39;;;;;;;;;;;;;;;;;;5076581;28;20375;-78
2022/08/24 05:16:06;;;;;;;;;;;;;;;;;;5074617;28;20293;-77
2022/08/24 05:18:32;;;;;;;;;;;;;;;;;;5058280;28;20393;-77
2022/08/24 05:20:57;;;;;;;;;;;;;;;;;;5074572;28;19920;-78
2022/08/24 05:23:23;;;;;;;;;;;;;;;;;;5041185;28;20393;-77
2022/08/24 05:25:48;;;;;;;;;;;;;;;;;;5057741;28;20007;-78
2022/08/24 05:28:13;;;;;;;;;;;;;;;;;;5075973;28;19920;-77
2022/08/24 05:30:38;;;;;;;;;;;;;;;;;;5058057;28;20373;-78
2022/08/24 05:33:04;;;;;;;;;;;;;;;;;;5074408;28;19920;-77
2022/08/24 05:35:29;;;;;;;;;;;;;;;;;;5076180;28;19912;-78
2022/08/24 05:37:54;;;;;;;;;;;;;;;;;;5041011;28;20390;-77
2022/08/24 05:40:20;;;;;;;;;;;;;;;;;;5075488;28;20379;-77
2022/08/24 05:42:45;;;;;;;;;;;;;;;;;;5040998;28;19938;-77
2022/08/24 05:45:11;;;;;;;;;;;;;;;;;;5057606;28;19924;-77
2022/08/24 05:47:37;;;;;;;;;;;;;;;;;;5057666;28;20363;-77
2022/08/24 05:50:02;;;;;;;;;;;;;;;;;;5084859;28;20010;-78
2022/08/24 05:52:28;;;;;;;;;;;;;;;;;;5077365;28;20371;-78
2022/08/24 05:54:54;;;;;;;;;;;;;;;;;;5077091;28;20007;-77
2022/08/24 05:57:19;;;;;;;;;;;;;;;;;;5077304;28;19912;-78
2022/08/24 05:59:45;;;;;;;;;;;;;;;;;;5077626;28;19912;-77
2022/08/24 06:02:10;;;;;;;;;;;;;;;;;;5095741;28;20420;-78
2022/08/24 06:04:37;;;;;;;;;;;;;;;;;;5094187;28;19923;-78
2022/08/24 06:07:03;;;;;;;;;;;;;;;;;;5077196;28;19924;-79
2022/08/24 06:09:28;;;;;;;;;;;;;;;;;;5077487;28;19935;-77
2022/08/24 06:11:53;;;;;;;;;;;;;;;;;;5095802;28;20363;-78
2022/08/24 06:14:18;;;;;;;;;;;;;;;;;;5076916;28;19985;-78
2022/08/24 06:16:44;;;;;;;;;;;;;;;;;;5077244;28;19916;-78
2022/08/24 06:19:10;;;;;;;;;;;;;;;;;;5077409;28;19912;-78
2022/08/24 06:21:36;;;;;;;;;;;;;;;;;;5095130;28;19916;-77
2022/08/24 06:24:02;;;;;;;;;;;;;;;;;;5076939;28;20033;-77
2022/08/24 06:29:12;;;;;;;;;;;;;;;;;;5079646;28;20385;-77
2022/08/24 06:31:39;;;;;;;;;;;;;;;;;;5076511;28;19950;-77
2022/08/24 06:34:05;;;;;;;;;;;;;;;;;;5094664;28;20425;-77
2022/08/24 06:36:30;;;;;;;;;;;;;;;;;;5059632;28;19959;-77
2022/08/24 06:38:55;;;;;;;;;;;;;;;;;;5093257;28;19920;-78
2022/08/24 06:41:21;;;;;;;;;;;;;;;;;;5093244;28;20290;-78
2022/08/24 06:43:46;;;;;;;;;;;;;;;;;;5092759;28;19973;-78
2022/08/24 06:46:12;;;;;;;;;;;;;;;;;;5076657;28;19926;-77
2022/08/24 06:48:37;;;;;;;;;;;;;;;;;;5059642;28;19912;-78
2022/08/24 06:51:07;;;;;;;;;;;;;;;;;;5059240;28;19926;-78
2022/08/24 06:53:32;;;;;;;;;;;;;;;;;;5076349;28;20355;-77
2022/08/24 06:55:57;;;;;;;;;;;;;;;;;;5076563;28;19924;-77
2022/08/24 06:58:24;;;;;;;;;;;;;;;;;;5076787;28;20331;-78
2022/08/24 07:00:49;;;;;;;;;;;;;;;;;;5094273;28;19970;-77
2022/08/24 07:03:15;;;;;;;;;;;;;;;;;;5076460;28;19912;-78
2022/08/24 07:05:48;;;;;;;;;;;;;;;;;;5094727;28;19920;-77
2022/08/24 07:08:13;;;;;;;;;;;;;;;;;;5075202;28;20354;-78
2022/08/24 07:10:38;;;;;;;;;;;;;;;;;;5092852;28;19928;-78
2022/08/24 07:13:03;;;;;;;;;;;;;;;;;;5059132;28;20370;-78
2022/08/24 07:15:29;;;;;;;;;;;;;;;;;;5092880;28;19978;-77
2022/08/24 07:17:54;;;;;;;;;;;;;;;;;;5076035;28;19916;-78
2022/08/24 07:20:20;;;;;;;;;;;;;;;;;;5094341;28;20428;-78
2022/08/24 07:22:45;;;;;;;;;;;;;;;;;;5075952;28;19934;-78
2022/08/24 07:25:11;;;;;;;;;;;;;;;;;;5075933;28;19951;-77
2022/08/24 07:27:36;;;;;;;;;;;;;;;;;;5094273;28;19927;-78
2022/08/24 07:30:02;;;;;;;;;;;;;;;;;;5075822;28;19920;-77
2022/08/24 07:32:28;;;;;;;;;;;;;;;;;;5059004;28;20016;-77
2022/08/24 07:34:53;;;;;;;;;;;;;;;;;;5075835;28;20020;-78
2022/08/24 07:37:18;;;;;;;;;;;;;;;;;;5059239;28;19912;-77
2022/08/24 07:39:44;;;;;;;;;;;;;;;;;;5076378;28;19923;-78
2022/08/24 07:42:09;;;;;;;;;;;;;;;;;;5094934;28;19923;-75
2022/08/24 07:44:34;;;;;;;;;;;;;;;;;;5076170;28;20362;-77
2022/08/24 07:47:00;;;;;;;;;;;;;;;;;;5095278;28;19916;-78
2022/08/24 07:49:25;;;;;;;;;;;;;;;;;;5071785;28;19920;-77
2022/08/24 07:51:52;;;;;;;;;;;;;;;;;;5055964;28;19924;-77
2022/08/24 07:54:17;;;;;;;;;;;;;;;;;;5056237;28;19920;-77
2022/08/24 07:56:43;;;;;;;;;;;;;;;;;;5057074;28;19913;-77
2022/08/24 07:59:08;;;;;;;;;;;;;;;;;;5074258;28;20008;-77
2022/08/24 08:01:35;;;;;;;;;;;;;;;;;;5055925;28;20424;-78
2022/08/24 08:04:01;;;;;;;;;;;;;;;;;;5072371;28;20455;-77
2022/08/24 08:06:26;;;;;;;;;;;;;;;;;;5075244;28;19996;-77
2022/08/24 08:08:52;;;;;;;;;;;;;;;;;;5056842;28;19923;-77
2022/08/24 08:11:18;;;;;;;;;;;;;;;;;;5072157;28;19971;-78
2022/08/24 08:13:44;;;;;;;;;;;;;;;;;;5074002;28;20003;-78
2022/08/24 08:16:09;;;;;;;;;;;;;;;;;;5055337;28;20019;-78
2022/08/24 08:18:34;;;;;;;;;;;;;;;;;;5056350;28;20337;-78
2022/08/24 08:21:01;;;;;;;;;;;;;;;;;;5059535;28;19921;-79
2022/08/24 08:26:11;;;;;;;;;;;;;;;;;;5060388;28;19939;-76
2022/08/24 08:28:37;;;;;;;;;;;;;;;;;;5058411;28;19920;-77
2022/08/24 08:31:02;;;;;;;;;;;;;;;;;;5076012;28;19921;-76
2022/08/24 08:33:28;;;;;;;;;;;;;;;;;;5058326;28;19965;-77
2022/08/24 08:36:02;;;;;;;;;;;;;;;;;;5058157;28;20394;-77
2022/08/24 08:38:27;;;;;;;;;;;;;;;;;;5058138;28;19912;-79
2022/08/24 08:41:06;;;;;;;;;;;;;;;;;;5041745;28;20011;-77
2022/08/24 08:43:35;;;;;;;;;;;;;;;;;;5043023;28;19920;-78
2022/08/24 08:46:12;;;;;;;;;;;;;;;;;;5041371;28;20347;-77
2022/08/24 08:48:37;;;;;;;;;;;;;;;;;;5057853;28;20394;-78
2022/08/24 08:51:09;;;;;;;;;;;;;;;;;;5093344;28;19920;-77
2022/08/24 08:53:41;;;;;;;;;;;;;;;;;;5095789;28;19922;-77
2022/08/24 08:56:24;;;;;;;;;;;;;;;;;;5095673;28;19912;-78
2022/08/24 08:58:55;;;;;;;;;;;;;;;;;;5095794;28;19912;-77
2022/08/24 09:01:34;;;;;;;;;;;;;;;;;;5077637;28;19916;-77
2022/08/24 09:04:18;;;;;;;;;;;;;;;;;;5060908;28;19915;-77
2022/08/24 09:06:50;;;;;;;;;;;;;;;;;;5095571;28;20393;-77
2022/08/24 09:09:34;;;;;;;;;;;;;;;;;;5077254;28;19912;-77
2022/08/24 09:12:04;;;;;;;;;;;;;;;;;;5095563;28;20371;-78
2022/08/24 09:14:34;;;;;;;;;;;;;;;;;;5077797;28;20370;-77
2022/08/24 09:16:59;;;;;;;;;;;;;;;;;;5060664;28;19916;-80
2022/08/24 09:19:31;;;;;;;;;;;;;;;;;;5095424;28;19919;-79
2022/08/24 09:22:06;;;;;;;;;;;;;;;;;;5077224;28;20045;-78
2022/08/24 09:24:56;;;;;;;;;;;;;;;;;;5095245;28;19912;-79
2022/08/24 09:27:31;;;;;;;;;;;;;;;;;;5077218;28;19916;-78
2022/08/24 09:30:17;;;;;;;;;;;;;;;;;;5076513;28;20056;-78
2022/08/24 09:32:42;;;;;;;;;;;;;;;;;;5077399;28;20019;-79
2022/08/24 09:35:13;;;;;;;;;;;;;;;;;;5077036;28;19985;-80
2022/08/24 09:37:51;;;;;;;;;;;;;;;;;;5077214;28;19919;-79
2022/08/24 09:40:23;;;;;;;;;;;;;;;;;;5077160;28;20290;-80
2022/08/24 09:42:51;;;;;;;;;;;;;;;;;;5060206;28;19950;-80
2022/08/24 09:45:35;;;;;;;;;;;;;;;;;;5076927;28;19923;-80
2022/08/24 09:48:15;;;;;;;;;;;;;;;;;;5094857;28;19921;-80
2022/08/24 09:50:50;;;;;;;;;;;;;;;;;;5063768;28;19920;-79
2022/08/24 09:53:16;;;;;;;;;;;;;;;;;;5074666;28;19916;-79
2022/08/24 09:55:50;;;;;;;;;;;;;;;;;;5056632;28;19919;-79
2022/08/24 09:58:23;;;;;;;;;;;;;;;;;;5056483;28;19919;-79
2022/08/24 10:01:03;;;;;;;;;;;;;;;;;;5056614;28;19919;-79
2022/08/24 10:03:47;;;;;;;;;;;;;;;;;;5056710;28;19913;-79
2022/08/24 10:06:31;;;;;;;;;;;;;;;;;;5056192;28;20003;-79
2022/08/24 10:09:08;;;;;;;;;;;;;;;;;;5074192;28;20347;-79
2022/08/24 10:11:45;;;;;;;;;;;;;;;;;;5056471;28;19917;-79
2022/08/24 10:14:29;;;;;;;;;;;;;;;;;;5056369;28;20347;-79
2022/08/24 10:17:00;;;;;;;;;;;;;;;;;;5073973;28;20015;-80
2022/08/24 10:19:39;;;;;;;;;;;;;;;;;;5039731;28;20294;-79
2022/08/24 10:22:13;;;;;;;;;;;;;;;;;;5056044;28;19962;-80
2022/08/24 10:24:38;;;;;;;;;;;;;;;;;;5055904;28;19956;-79
2022/08/24 10:27:22;;;;;;;;;;;;;;;;;;5073990;28;19981;-80
2022/08/24 10:30:13;;;;;;;;;;;;;;;;;;5073701;28;20378;-79
2022/08/24 10:32:46;;;;;;;;;;;;;;;;;;5043029;28;19920;-79
2022/08/24 10:35:13;;;;;;;;;;;;;;;;;;5055644;28;20333;-78
2022/08/24 10:39:39;;;;;;;;;;;;;;;;;;5039085;28;19913;-80
2022/08/24 10:40:53;;;;;;;;;;;;;;;;;;5074039;28;19997;-79
2022/08/24 10:43:33;;;;;;;;;;;;;;;;;;5039278;28;20053;-80
2022/08/24 10:46:17;;;;;;;;;;;;;;;;;;5073520;28;19923;-80
2022/08/24 10:48:51;;;;;;;;;;;;;;;;;;5074643;28;20370;-79
2022/08/24 10:51:19;;;;;;;;;;;;;;;;;;5073569;28;19927;-80
2022/08/24 10:53:49;;;;;;;;;;;;;;;;;;5093827;28;19916;-81
2022/08/24 10:56:19;;;;;;;;;;;;;;;;;;5075350;28;19919;-82
2022/08/24 10:58:47;;;;;;;;;;;;;;;;;;5093808;28;19916;-80
2022/08/24 11:01:12;;;;;;;;;;;;;;;;;;5075481;28;19916;-82
2022/08/24 11:04:01;;;;;;;;;;;;;;;;;;5075519;28;19919;-80
2022/08/24 11:06:32;;;;;;;;;;;;;;;;;;5094564;28;19912;-80
2022/08/24 11:09:14;;;;;;;;;;;;;;;;;;5059765;28;20200;-80
2022/08/24 11:11:42;;;;;;;;;;;;;;;;;;5060181;28;20402;-80
2022/08/24 11:14:07;;;;;;;;;;;;;;;;;;5076716;28;19927;-79
2022/08/24 11:16:34;;;;;;;;;;;;;;;;;;5076266;28;19912;-82
2022/08/24 11:19:01;;;;;;;;;;;;;;;;;;5075939;28;19963;-81
2022/08/24 11:21:31;;;;;;;;;;;;;;;;;;5075837;28;19916;-81
2022/08/24 11:24:15;;;;;;;;;;;;;;;;;;5075282;28;20008;-81
2022/08/24 11:26:49;;;;;;;;;;;;;;;;;;5093246;28;19912;-81
2022/08/24 11:29:14;;;;;;;;;;;;;;;;;;5075199;28;19919;-81
2022/08/24 11:31:40;;;;;;;;;;;;;;;;;;5075165;28;19916;-78
2022/08/24 11:34:06;;;;;;;;;;;;;;;;;;5093114;28;19920;-81
2022/08/24 11:36:33;;;;;;;;;;;;;;;;;;5093073;28;19923;-80
2022/08/24 11:39:11;;;;;;;;;;;;;;;;;;5058258;28;19912;-80
2022/08/24 11:41:40;;;;;;;;;;;;;;;;;;5093227;28;19961;-81
2022/08/24 11:44:09;;;;;;;;;;;;;;;;;;5075283;28;19927;-79
2022/08/24 11:46:36;;;;;;;;;;;;;;;;;;5075014;28;20003;-79
2022/08/24 11:49:01;;;;;;;;;;;;;;;;;;5075251;28;20455;-80
2022/08/24 11:51:27;;;;;;;;;;;;;;;;;;5092822;28;19956;-79
2022/08/24 11:53:52;;;;;;;;;;;;;;;;;;5076633;28;20011;-79
2022/08/24 11:56:22;;;;;;;;;;;;;;;;;;5096821;28;19957;-80
2022/08/24 11:58:53;;;;;;;;;;;;;;;;;;5062215;28;19961;-79
2022/08/24 12:01:26;;;;;;;;;;;;;;;;;;5061976;28;19912;-81
2022/08/24 12:04:10;;;;;;;;;;;;;;;;;;5062073;28;19916;-79
2022/08/24 12:06:36;;;;;;;;;;;;;;;;;;5096909;28;19919;-79
2022/08/24 12:09:21;;;;;;;;;;;;;;;;;;5096928;28;19916;-79
2022/08/24 12:11:52;;;;;;;;;;;;;;;;;;5078226;28;19917;-79
2022/08/24 12:14:27;;;;;;;;;;;;;;;;;;5078469;28;19927;-79
2022/08/24 12:17:03;;;;;;;;;;;;;;;;;;5078472;28;19916;-79
2022/08/24 12:19:30;;;;;;;;;;;;;;;;;;5078431;28;19912;-81
2022/08/24 12:21:57;;;;;;;;;;;;;;;;;;5061637;28;20387;-80
2022/08/24 12:24:26;;;;;;;;;;;;;;;;;;5078149;28;19937;-81
2022/08/24 12:26:56;;;;;;;;;;;;;;;;;;5096368;28;20387;-81
2022/08/24 12:29:21;;;;;;;;;;;;;;;;;;5061824;28;20454;-81
2022/08/24 12:31:51;;;;;;;;;;;;;;;;;;5077962;28;20003;-80
2022/08/24 12:34:17;;;;;;;;;;;;;;;;;;5078148;28;20389;-80
2022/08/24 12:36:46;;;;;;;;;;;;;;;;;;5061528;28;19919;-79
2022/08/24 12:39:12;;;;;;;;;;;;;;;;;;5077935;28;19912;-80
2022/08/24 12:41:42;;;;;;;;;;;;;;;;;;5079780;28;19918;-81
2022/08/24 12:44:11;;;;;;;;;;;;;;;;;;5078751;28;20267;-80
2022/08/24 12:46:37;;;;;;;;;;;;;;;;;;5079251;28;19912;-79
2022/08/24 12:49:09;;;;;;;;;;;;;;;;;;5080340;28;19919;-79
2022/08/24 12:51:38;;;;;;;;;;;;;;;;;;5063049;28;19928;-80
2022/08/24 12:54:06;;;;;;;;;;;;;;;;;;5079962;28;19915;-79
2022/08/24 12:56:52;;;;;;;;;;;;;;;;;;5096395;28;20367;-79
2022/08/24 12:59:21;;;;;;;;;;;;;;;;;;5071031;28;19912;-79
2022/08/24 13:01:55;;;;;;;;;;;;;;;;;;5078021;28;20385;-79
2022/08/24 13:04:26;;;;;;;;;;;;;;;;;;5060716;28;19915;-79
2022/08/24 13:06:57;;;;;;;;;;;;;;;;;;5078880;28;19916;-79
2022/08/24 13:09:35;;;;;;;;;;;;;;;;;;5077774;28;19954;-80
2022/08/24 13:12:19;;;;;;;;;;;;;;;;;;5095889;28;19916;-80
2022/08/24 13:14:48;;;;;;;;;;;;;;;;;;5077898;28;19938;-78
2022/08/24 13:17:13;;;;;;;;;;;;;;;;;;5061521;28;19977;-78
2022/08/24 13:19:43;;;;;;;;;;;;;;;;;;5078452;28;20371;-78
2022/08/24 13:22:08;;;;;;;;;;;;;;;;;;5079149;28;19912;-79
2022/08/24 13:24:33;;;;;;;;;;;;;;;;;;5096249;28;20367;-77
2022/08/24 13:27:11;;;;;;;;;;;;;;;;;;5095992;28;19935;-77
2022/08/24 13:29:37;;;;;;;;;;;;;;;;;;5077745;28;20363;-78
2022/08/24 13:32:03;;;;;;;;;;;;;;;;;;5061129;28;19967;-77
2022/08/24 13:34:35;;;;;;;;;;;;;;;;;;5096252;28;19951;-78
2022/08/24 13:37:05;;;;;;;;;;;;;;;;;;5096177;28;20434;-78
2022/08/24 13:39:33;;;;;;;;;;;;;;;;;;5095976;28;19912;-77
2022/08/24 13:42:11;;;;;;;;;;;;;;;;;;5097128;28;19912;-78
2022/08/24 13:44:55;;;;;;;;;;;;;;;;;;5097183;28;19960;-77
2022/08/24 13:47:39;;;;;;;;;;;;;;;;;;5078390;28;19973;-77
2022/08/24 13:50:08;;;;;;;;;;;;;;;;;;5096139;28;19927;-77
2022/08/24 13:52:36;;;;;;;;;;;;;;;;;;5061916;28;19912;-78
2022/08/24 13:55:03;;;;;;;;;;;;;;;;;;5077936;28;19916;-78
2022/08/24 13:57:45;;;;;;;;;;;;;;;;;;5078432;28;19919;-77
2022/08/24 14:00:29;;;;;;;;;;;;;;;;;;5061284;28;19912;-77
2022/08/24 14:03:07;;;;;;;;;;;;;;;;;;5077877;28;19912;-78
2022/08/24 14:05:37;;;;;;;;;;;;;;;;;;5096092;28;19916;-78
2022/08/24 14:08:02;;;;;;;;;;;;;;;;;;5061593;28;19965;-77
2022/08/24 14:10:27;;;;;;;;;;;;;;;;;;5078085;28;19959;-78
2022/08/24 14:12:58;;;;;;;;;;;;;;;;;;5096587;28;20286;-78
2022/08/24 14:15:24;;;;;;;;;;;;;;;;;;5098478;28;19920;-78
2022/08/24 14:18:07;;;;;;;;;;;;;;;;;;5097977;28;19912;-77
2022/08/24 14:20:38;;;;;;;;;;;;;;;;;;5096567;28;19946;-77
2022/08/24 14:23:06;;;;;;;;;;;;;;;;;;5097470;28;19912;-78
2022/08/24 14:25:32;;;;;;;;;;;;;;;;;;5098171;28;20392;-78
2022/08/24 14:27:57;;;;;;;;;;;;;;;;;;5062749;28;20458;-78
2022/08/24 14:30:23;;;;;;;;;;;;;;;;;;5097185;28;19974;-79
2022/08/24 14:32:57;;;;;;;;;;;;;;;;;;5097441;28;19912;-78
2022/08/24 14:35:30;;;;;;;;;;;;;;;;;;5078574;28;19912;-78
2022/08/24 14:38:14;;;;;;;;;;;;;;;;;;5061257;28;19948;-78
2022/08/24 14:40:55;;;;;;;;;;;;;;;;;;5077967;28;19919;-78
2022/08/24 14:43:30;;;;;;;;;;;;;;;;;;5096816;28;19912;-78
2022/08/24 14:46:15;;;;;;;;;;;;;;;;;;5078763;28;19912;-78
2022/08/24 14:48:58;;;;;;;;;;;;;;;;;;5096148;28;19912;-78
2022/08/24 14:51:43;;;;;;;;;;;;;;;;;;5059609;28;19974;-78
2022/08/24 14:54:14;;;;;;;;;;;;;;;;;;5058544;28;20011;-79
2022/08/24 14:56:46;;;;;;;;;;;;;;;;;;5058333;28;19919;-79
2022/08/24 14:59:36;;;;;;;;;;;;;;;;;;5042360;28;19916;-79
2022/08/24 15:02:17;;;;;;;;;;;;;;;;;;5042026;28;20387;-79
2022/08/24 15:05:06;;;;;;;;;;;;;;;;;;5077972;28;19916;-79
2022/08/24 15:07:35;;;;;;;;;;;;;;;;;;5039646;28;19913;-79
2022/08/24 15:10:00;;;;;;;;;;;;;;;;;;5043517;28;19920;-79
2022/08/24 15:12:38;;;;;;;;;;;;;;;;;;5077019;28;20007;-78
2022/08/24 15:15:14;;;;;;;;;;;;;;;;;;5059732;28;19920;-78
2022/08/24 15:17:45;;;;;;;;;;;;;;;;;;5058570;28;20272;-78
2022/08/24 15:20:22;;;;;;;;;;;;;;;;;;5076433;28;20050;-77
2022/08/24 15:22:56;;;;;;;;;;;;;;;;;;5040283;28;19960;-76
2022/08/24 15:25:30;;;;;;;;;;;;;;;;;;5040304;28;19917;-78
2022/08/24 15:27:56;;;;;;;;;;;;;;;;;;5055054;28;20416;-77
2022/08/24 15:30:24;;;;;;;;;;;;;;;;;;5055607;28;20019;-77
2022/08/24 15:32:51;;;;;;;;;;;;;;;;;;5056498;28;19912;-77
2022/08/24 15:35:40;;;;;;;;;;;;;;;;;;5039165;28;20003;-76
2022/08/24 15:38:20;;;;;;;;;;;;;;;;;;5062747;28;19912;-76
2022/08/24 15:40:45;;;;;;;;;;;;;;;;;;5056021;28;19913;-77
2022/08/24 15:43:11;;;;;;;;;;;;;;;;;;5055845;28;19923;-77
2022/08/24 15:45:37;;;;;;;;;;;;;;;;;;5055534;28;19916;-77
2022/08/24 15:48:03;;;;;;;;;;;;;;;;;;5055830;28;19916;-77
2022/08/24 15:50:32;;;;;;;;;;;;;;;;;;5066468;28;19964;-76
2022/08/24 15:52:58;;;;;;;;;;;;;;;;;;5075880;28;19971;-77
2022/08/24 15:55:30;;;;;;;;;;;;;;;;;;5093691;28;19951;-78
2022/08/24 15:57:56;;;;;;;;;;;;;;;;;;5075446;28;19919;-78
2022/08/24 16:03:19;;;;;;;;;;;;;;;;;;5079347;28;19919;-78
2022/08/24 16:05:44;;;;;;;;;;;;;;;;;;5076351;28;20476;-77
2022/08/24 16:08:10;;;;;;;;;;;;;;;;;;5076282;28;19951;-76
2022/08/24 16:10:39;;;;;;;;;;;;;;;;;;5075975;28;19964;-76
2022/08/24 16:13:05;;;;;;;;;;;;;;;;;;5077288;28;19919;-76
2022/08/24 16:15:31;;;;;;;;;;;;;;;;;;5096039;28;19916;-76
2022/08/24 16:17:58;;;;;;;;;;;;;;;;;;5077377;28;19916;-77
2022/08/24 16:20:23;;;;;;;;;;;;;;;;;;5060671;28;19918;-76
2022/08/24 16:22:52;;;;;;;;;;;;;;;;;;5076728;28;20289;-77
2022/08/24 16:25:44;;;;;;;;;;;;;;;;;;5076920;28;19913;-77
2022/08/24 16:28:10;;;;;;;;;;;;;;;;;;5090801;28;19919;-75
2022/08/24 16:30:51;;;;;;;;;;;;;;;;;;5076486;28;19923;-77
2022/08/24 16:33:34;;;;;;;;;;;;;;;;;;5094186;28;20351;-76
2022/08/24 16:36:00;;;;;;;;;;;;;;;;;;5093554;28;20374;-76
2022/08/24 16:38:26;;;;;;;;;;;;;;;;;;5075816;28;20435;-77
2022/08/24 16:40:52;;;;;;;;;;;;;;;;;;5078734;28;19916;-76
2022/08/24 16:43:17;;;;;;;;;;;;;;;;;;5079296;28;19942;-78
2022/08/24 16:45:42;;;;;;;;;;;;;;;;;;5079131;28;19954;-78
2022/08/24 16:48:08;;;;;;;;;;;;;;;;;;5062130;28;20010;-78
2022/08/24 16:50:33;;;;;;;;;;;;;;;;;;5058918;28;19924;-78
2022/08/24 16:52:58;;;;;;;;;;;;;;;;;;5059519;28;20003;-77
2022/08/24 16:55:23;;;;;;;;;;;;;;;;;;5075916;28;20004;-77
2022/08/24 16:57:49;;;;;;;;;;;;;;;;;;5059781;28;20384;-77
2022/08/24 17:00:16;;;;;;;;;;;;;;;;;;5059832;28;19924;-77
2022/08/24 17:02:42;;;;;;;;;;;;;;;;;;5059880;28;19912;-77
2022/08/24 17:05:07;;;;;;;;;;;;;;;;;;5059336;28;20264;-77
2022/08/24 17:07:32;;;;;;;;;;;;;;;;;;5059526;28;19913;-78
2022/08/24 17:09:59;;;;;;;;;;;;;;;;;;5042510;28;19989;-77